• Join FlightAware (Why Join?)
  • Login
  • US Flag 
09:05AM EDT


 

Airport Tracker/Info


-or-


 

Live Flight TrackerFlight Track Log ✈ N983CA ✈ 24-Apr-2013 ✈ KDEN - KRDM

Flight Track Log - Related Links

Times and Time Zones

All times are in EDT time to prevent confusion due to time zone crossing. See the N983CA flight status page for this flight to view local times or setup timezone preferences in your user account.

Time Position Orientation Groundspeed Altitude Reporting Facility
EDT Latitude Longitude Course Direction KTS MPH feet Rate Location/Type
09:44PM 40.2705 -104.7961 347° North  Level FlightAware Approximate
09:45PM 40.3755 -104.8307 346° North  Level FlightAware Approximate
09:46PM 40.4804 -104.8657 346° North  Level FlightAware Approximate
09:47PM 40.5859 -104.8953 346° North  Level FlightAware Approximate
09:48PM 40.6909 -104.9303 346° North  Level FlightAware Approximate
09:49PM 40.7942 -104.9721 339° North  Level FlightAware Approximate
09:50PM 40.8978 -105.0119 349° North  Level FlightAware Approximate
09:51PM 41.0040 -105.0397 347° North  Level FlightAware Approximate
09:52PM 41.1094 -105.0721 347° North  Level FlightAware Approximate
09:53PM 41.2148 -105.1049 346° North  Level FlightAware Approximate
09:54PM 41.3195 -105.1414 343° North  Level FlightAware Approximate
09:55PM 41.4229 -105.1845 343° North  Level FlightAware Approximate
09:56PM 41.5266 -105.2255 346° North  Level FlightAware Approximate
09:57PM 41.5612 -105.3448 278° West  Level FlightAware Approximate
09:58PM 41.5735 -105.4886 276° West  Level FlightAware Approximate
09:59PM 41.5852 -105.6324 279° West  Level FlightAware Approximate
10:00PM 41.6018 -105.7755 279° West  Level FlightAware Approximate
10:01PM 41.6184 -105.9186 279° West  Level FlightAware Approximate
10:02PM 41.6343 -106.0619 276° West  Level FlightAware Approximate
10:03PM 41.6454 -106.2059 276° West  Level FlightAware Approximate
10:04PM 41.6569 -106.3500 276° West  Level FlightAware Approximate
10:05PM 41.6686 -106.4941 276° West  Level FlightAware Approximate
10:06PM 41.6801 -106.6382 276° West  Level FlightAware Approximate
10:07PM 41.6914 -106.7824 276° West  Level FlightAware Approximate
10:08PM 41.7026 -106.9266 276° West  Level FlightAware Approximate
10:09PM 41.7136 -107.0709 276° West  Level FlightAware Approximate
10:10PM 41.7244 -107.2152 276° West  Level FlightAware Approximate
10:11PM 41.7351 -107.3596 276° West  Level FlightAware Approximate
10:12PM 41.7455 -107.5040 276° West  Level FlightAware Approximate
10:13PM 41.7695 -107.6445 289° West  Level FlightAware Approximate
10:14PM 41.8038 -107.7823 288° West  Level FlightAware Approximate
10:15PM 41.8372 -107.9204 288° West  Level FlightAware Approximate
10:16PM 41.8705 -108.0588 288° West  Level FlightAware Approximate
10:17PM 41.9036 -108.1972 288° West  Level FlightAware Approximate
10:18PM 41.9366 -108.3358 288° West  Level FlightAware Approximate
10:19PM 41.9694 -108.4746 288° West  Level FlightAware Approximate
10:20PM 42.0020 -108.6134 288° West  Level FlightAware Approximate
10:21PM 42.0344 -108.7525 287° West  Level FlightAware Approximate
10:22PM 42.0667 -108.8916 287° West  Level FlightAware Approximate
10:23PM 42.0988 -109.0310 287° West  Level FlightAware Approximate
10:24PM 42.1308 -109.1704 287° West  Level FlightAware Approximate
10:25PM 42.1625 -109.3100 287° West  Level FlightAware Approximate
10:26PM 42.1941 -109.4497 287° West  Level FlightAware Approximate
10:27PM 42.2256 -109.5896 287° West  Level FlightAware Approximate
10:28PM 42.2569 -109.7296 287° West  Level FlightAware Approximate
10:29PM 42.2879 -109.8698 287° West  Level FlightAware Approximate
10:30PM 42.3189 -110.0100 287° West  Level FlightAware Approximate
10:31PM 42.3498 -110.1504 287° West  Level FlightAware Approximate
10:32PM 42.3805 -110.2909 287° West  Level FlightAware Approximate
10:33PM 42.4111 -110.4315 286° West  Level FlightAware Approximate
10:34PM 42.4415 -110.5723 286° West  Level FlightAware Approximate
10:35PM 42.4717 -110.7132 286° West  Level FlightAware Approximate
10:36PM 42.5017 -110.8543 286° West  Level FlightAware Approximate
10:37PM 42.5316 -110.9955 286° West  Level FlightAware Approximate
10:38PM 42.5613 -111.1368 286° West  Level FlightAware Approximate
10:39PM 42.5908 -111.2782 286° West  Level FlightAware Approximate
10:40PM 42.6201 -111.4198 286° West  Level FlightAware Approximate
10:41PM 42.6493 -111.5615 286° West  Level FlightAware Approximate
10:42PM 42.6783 -111.7034 286° West  Level FlightAware Approximate
10:43PM 42.7071 -111.8454 285° West  Level FlightAware Approximate
10:44PM 42.7358 -111.9875 285° West  Level FlightAware Approximate
10:45PM 42.7643 -112.1297 285° West  Level FlightAware Approximate
10:46PM 42.7925 -112.2721 285° West  Level FlightAware Approximate
10:47PM 42.8207 -112.4146 285° West  Level FlightAware Approximate
10:48PM 42.8486 -112.5572 285° West  Level FlightAware Approximate
10:49PM 42.8772 -112.6997 286° West  Level FlightAware Approximate
10:50PM 42.9071 -112.8417 286° West  Level FlightAware Approximate
10:51PM 42.9368 -112.9839 285° West  Level FlightAware Approximate
10:52PM 42.9654 -113.1265 285° West  Level FlightAware Approximate
10:53PM 42.9939 -113.2693 285° West  Level FlightAware Approximate
10:54PM 43.0227 -113.4120 286° West  Level FlightAware Approximate
10:55PM 43.0514 -113.5548 285° West  Level FlightAware Approximate
10:56PM 43.0799 -113.6978 285° West  Level FlightAware Approximate
10:57PM 43.1083 -113.8409 285° West  Level FlightAware Approximate
10:58PM 43.1368 -113.9840 285° West  Level FlightAware Approximate
10:59PM 43.1652 -114.1272 285° West  Level FlightAware Approximate
11:00PM 43.1935 -114.2705 285° West  Level FlightAware Approximate
11:01PM 43.2216 -114.4139 285° West  Level FlightAware Approximate
11:02PM 43.2495 -114.5575 285° West  Level FlightAware Approximate
11:03PM 43.2772 -114.7012 285° West  Level FlightAware Approximate
11:04PM 43.3032 -114.8456 284° West  Level FlightAware Approximate
11:05PM 43.3286 -114.9903 284° West  Level FlightAware Approximate
11:06PM 43.3538 -115.1350 284° West  Level FlightAware Approximate
11:07PM 43.3788 -115.2799 283° West  Level FlightAware Approximate
11:08PM 43.4036 -115.4249 283° West  Level FlightAware Approximate
11:09PM 43.4283 -115.5701 283° West  Level FlightAware Approximate
11:10PM 43.4564 -115.7140 286° West  Level FlightAware Approximate
11:11PM 43.4853 -115.8578 286° West  Level FlightAware Approximate
11:12PM 43.5140 -116.0017 285° West  Level FlightAware Approximate
11:13PM 43.5426 -116.1458 285° West  Level FlightAware Approximate
11:14PM 43.5668 -116.2913 282° West  Level FlightAware Approximate
11:15PM 43.5895 -116.4374 282° West  Level FlightAware Approximate
11:16PM 43.6119 -116.5837 282° West  Level FlightAware Approximate
11:17PM 43.6341 -116.7301 282° West  Level FlightAware Approximate
11:18PM 43.6562 -116.8765 282° West  Level FlightAware Approximate
11:19PM 43.6781 -117.0231 282° West  Level FlightAware Approximate
11:20PM 43.6997 -117.1698 282° West  Level FlightAware Approximate
11:21PM 43.7212 -117.3166 282° West  Level FlightAware Approximate
11:22PM 43.7426 -117.4635 281° West  Level FlightAware Approximate
11:23PM 43.7637 -117.6105 281° West  Level FlightAware Approximate
11:24PM 43.7846 -117.7576 281° West  Level FlightAware Approximate
11:25PM 43.8059 -117.9047 282° West  Level FlightAware Approximate
11:26PM 43.8283 -118.0515 282° West  Level FlightAware Approximate
11:27PM 43.8506 -118.1984 282° West  Level FlightAware Approximate
11:28PM 43.8727 -118.3454 282° West  Level FlightAware Approximate
11:29PM 43.8904 -118.4934 277° West  Level FlightAware Approximate
11:30PM 43.9083 -118.6413 286° West  Level FlightAware Approximate
11:31PM 43.9316 -118.7880 281° West  Level FlightAware Approximate
11:32PM 43.9477 -118.9358 283° West  Level FlightAware Approximate
11:33PM 43.9711 -119.0826 281° West  Level FlightAware Approximate
11:34PM 43.9908 -119.2306 281° West  Level FlightAware Approximate
11:35PM 44.0130 -119.3778 283° West  Level FlightAware Approximate
11:36PM 44.0326 -119.5259 280° West  Level FlightAware Approximate
11:37PM 44.0511 -119.6743 280° West  Level FlightAware Approximate
11:38PM 44.0694 -119.8228 279° West  Level FlightAware Approximate
11:39PM 44.0870 -119.9715 279° West  Level FlightAware Approximate
11:40PM 44.1045 -120.1202 279° West  Level FlightAware Approximate
11:41PM 44.1217 -120.2691 279° West  Level FlightAware Approximate
11:42PM 44.1388 -120.4181 279° West  Level FlightAware Approximate
11:43PM 44.1572 -120.5667 281° West  Level FlightAware Approximate
11:44PM 44.1783 -120.7147 281° West  Level FlightAware Approximate
11:45PM 44.1961 -120.8637 279° West  Level FlightAware Approximate
11:46PM 44.2126 -121.0129 279° West  Level FlightAware Approximate
11:47PM 44.2338 -121.1610 282° West  Level FlightAware Approximate
11:48PM 44.2541 -121.1500 90° East  Level Estimated
11:49PM 44.2541 -121.1500 90° East  Level Estimated
11:50PM 44.2541 -121.1500 90° East  Level Estimated
11:51PM 44.2541 -121.1500 90° East  Level Estimated